Kerby Knob, Kentucky
Current Conditions -  °F | °C
As of 4:15 PM on Saturday 25 Oct 2014 (Local Time) from KI39 Reporting Station
Scattered Clouds Scattered Clouds  
Wind Chill: 70°   Ceiling: Unl
Heat Index: 70°   Visibility: 10mi
Dew Point: 55°   Wind: 9mph
Humidity: 60%   Direction: 260°W
Pressure: 29.98"   Gusts: NA
Location:  37.4446°N, 84.0227°W
Report Text: KI39 252015Z AUTO 26008KT 10SM SCT038 21/13 A2998 RMK AO2
Loading
Personal Weather Stations






























Interactive Weather Map
Tropical Storm Tracking
New forecast layout! Learn more

10-Day Weather Forecast

Advertisements
Track Severe Weather on mobile